sensor_id;sensor_type;location;lat;lon;timestamp;P1;durP1;ratioP1;P2;durP2;ratioP2
25083;SDS011;13075;55.682;37.564;2023-02-20T00:02:02;49.05;;;21.15;;
25083;SDS011;13075;55.682;37.564;2023-02-20T00:04:28;48.22;;;21.02;;
25083;SDS011;13075;55.682;37.564;2023-02-20T00:06:54;49.95;;;23.67;;
25083;SDS011;13075;55.682;37.564;2023-02-20T00:09:19;50.50;;;21.55;;
25083;SDS011;13075;55.682;37.564;2023-02-20T00:11:45;51.95;;;22.23;;
25083;SDS011;13075;55.682;37.564;2023-02-20T00:14:11;50.65;;;22.38;;
25083;SDS011;13075;55.682;37.564;2023-02-20T00:16:37;46.88;;;21.77;;
25083;SDS011;13075;55.682;37.564;2023-02-20T00:19:03;55.03;;;23.48;;
25083;SDS011;13075;55.682;37.564;2023-02-20T00:21:28;51.85;;;22.90;;
25083;SDS011;13075;55.682;37.564;2023-02-20T00:23:54;60.10;;;22.98;;
25083;SDS011;13075;55.682;37.564;2023-02-20T00:26:19;54.35;;;24.48;;
25083;SDS011;13075;55.682;37.564;2023-02-20T00:28:45;57.00;;;24.63;;
25083;SDS011;13075;55.682;37.564;2023-02-20T00:31:12;56.67;;;23.60;;
25083;SDS011;13075;55.682;37.564;2023-02-20T00:33:40;56.33;;;24.23;;
25083;SDS011;13075;55.682;37.564;2023-02-20T00:36:07;57.28;;;23.42;;
25083;SDS011;13075;55.682;37.564;2023-02-20T00:38:41;61.85;;;23.75;;
25083;SDS011;13075;55.682;37.564;2023-02-20T00:41:08;56.35;;;24.45;;
25083;SDS011;13075;55.682;37.564;2023-02-20T00:43:36;48.83;;;22.52;;
25083;SDS011;13075;55.682;37.564;2023-02-20T00:46:03;54.92;;;26.00;;
25083;SDS011;13075;55.682;37.564;2023-02-20T00:48:28;50.97;;;24.58;;
25083;SDS011;13075;55.682;37.564;2023-02-20T00:51:14;56.40;;;24.45;;
25083;SDS011;13075;55.682;37.564;2023-02-20T00:53:40;44.72;;;22.60;;
25083;SDS011;13075;55.682;37.564;2023-02-20T00:56:05;58.47;;;24.08;;
25083;SDS011;13075;55.682;37.564;2023-02-20T00:58:31;54.72;;;23.80;;
25083;SDS011;13075;55.682;37.564;2023-02-20T01:00:57;54.17;;;23.02;;
25083;SDS011;13075;55.682;37.564;2023-02-20T01:03:23;51.20;;;22.92;;
25083;SDS011;13075;55.682;37.564;2023-02-20T01:05:48;48.58;;;22.60;;
25083;SDS011;13075;55.682;37.564;2023-02-20T01:08:14;52.95;;;21.42;;
25083;SDS011;13075;55.682;37.564;2023-02-20T01:10:40;62.92;;;25.08;;
25083;SDS011;13075;55.682;37.564;2023-02-20T01:13:05;49.80;;;22.58;;
25083;SDS011;13075;55.682;37.564;2023-02-20T01:15:31;51.28;;;24.05;;
25083;SDS011;13075;55.682;37.564;2023-02-20T01:17:56;54.00;;;23.42;;
25083;SDS011;13075;55.682;37.564;2023-02-20T01:20:23;46.92;;;20.35;;
25083;SDS011;13075;55.682;37.564;2023-02-20T01:22:48;43.45;;;20.52;;
25083;SDS011;13075;55.682;37.564;2023-02-20T01:25:14;44.10;;;22.15;;
25083;SDS011;13075;55.682;37.564;2023-02-20T01:27:42;51.95;;;22.02;;
25083;SDS011;13075;55.682;37.564;2023-02-20T01:30:08;48.25;;;21.80;;
25083;SDS011;13075;55.682;37.564;2023-02-20T01:32:34;57.88;;;23.80;;
25083;SDS011;13075;55.682;37.564;2023-02-20T01:35:00;43.58;;;20.92;;
25083;SDS011;13075;55.682;37.564;2023-02-20T01:37:26;51.72;;;22.60;;
25083;SDS011;13075;55.682;37.564;2023-02-20T01:39:51;45.60;;;20.17;;
25083;SDS011;13075;55.682;37.564;2023-02-20T01:42:18;44.38;;;18.95;;
25083;SDS011;13075;55.682;37.564;2023-02-20T01:44:46;50.30;;;20.83;;
25083;SDS011;13075;55.682;37.564;2023-02-20T01:47:19;42.45;;;19.25;;
25083;SDS011;13075;55.682;37.564;2023-02-20T01:52:28;45.90;;;19.40;;
25083;SDS011;13075;55.682;37.564;2023-02-20T01:55:03;41.33;;;18.60;;
25083;SDS011;13075;55.682;37.564;2023-02-20T01:57:34;39.67;;;18.52;;
25083;SDS011;13075;55.682;37.564;2023-02-20T02:00:05;42.00;;;19.25;;
25083;SDS011;13075;55.682;37.564;2023-02-20T02:02:41;38.85;;;16.70;;
25083;SDS011;13075;55.682;37.564;2023-02-20T02:05:10;40.50;;;19.00;;
25083;SDS011;13075;55.682;37.564;2023-02-20T02:07:37;42.35;;;19.35;;
25083;SDS011;13075;55.682;37.564;2023-02-20T02:10:07;50.38;;;19.48;;
25083;SDS011;13075;55.682;37.564;2023-02-20T02:12:36;40.92;;;17.60;;
25083;SDS011;13075;55.682;37.564;2023-02-20T02:15:11;46.00;;;18.60;;
25083;SDS011;13075;55.682;37.564;2023-02-20T02:37:32;45.92;;;21.02;;
25083;SDS011;13075;55.682;37.564;2023-02-20T02:43:00;41.80;;;19.38;;
25083;SDS011;13075;55.682;37.564;2023-02-20T02:45:55;49.60;;;21.58;;
25083;SDS011;13075;55.682;37.564;2023-02-20T02:51:05;42.15;;;21.40;;
25083;SDS011;13075;55.682;37.564;2023-02-20T02:53:37;54.20;;;23.15;;
25083;SDS011;13075;55.682;37.564;2023-02-20T02:56:03;48.25;;;22.45;;
25083;SDS011;13075;55.682;37.564;2023-02-20T02:58:48;47.85;;;23.23;;
25083;SDS011;13075;55.682;37.564;2023-02-20T03:01:18;41.08;;;21.60;;
25083;SDS011;13075;55.682;37.564;2023-02-20T03:03:48;44.35;;;21.48;;
25083;SDS011;13075;55.682;37.564;2023-02-20T03:06:19;48.30;;;20.92;;
25083;SDS011;13075;55.682;37.564;2023-02-20T03:09:15;49.33;;;22.80;;
25083;SDS011;13075;55.682;37.564;2023-02-20T03:11:45;47.15;;;23.13;;
25083;SDS011;13075;55.682;37.564;2023-02-20T03:14:19;50.38;;;24.92;;
25083;SDS011;13075;55.682;37.564;2023-02-20T03:20:02;47.15;;;24.38;;
25083;SDS011;13075;55.682;37.564;2023-02-20T03:22:37;47.15;;;22.92;;
25083;SDS011;13075;55.682;37.564;2023-02-20T03:28:06;48.38;;;22.58;;
25083;SDS011;13075;55.682;37.564;2023-02-20T03:30:44;46.53;;;23.35;;
25083;SDS011;13075;55.682;37.564;2023-02-20T03:36:23;43.88;;;19.77;;
25083;SDS011;13075;55.682;37.564;2023-02-20T03:39:17;42.83;;;21.15;;
25083;SDS011;13075;55.682;37.564;2023-02-20T03:42:05;39.67;;;20.63;;
25083;SDS011;13075;55.682;37.564;2023-02-20T03:44:59;41.00;;;20.42;;
25083;SDS011;13075;55.682;37.564;2023-02-20T03:47:29;37.33;;;20.05;;
25083;SDS011;13075;55.682;37.564;2023-02-20T03:49:58;44.97;;;21.17;;
25083;SDS011;13075;55.682;37.564;2023-02-20T03:52:26;38.13;;;21.52;;
25083;SDS011;13075;55.682;37.564;2023-02-20T03:54:52;43.90;;;20.35;;
25083;SDS011;13075;55.682;37.564;2023-02-20T03:57:19;38.20;;;19.60;;
25083;SDS011;13075;55.682;37.564;2023-02-20T03:59:53;35.95;;;19.65;;
25083;SDS011;13075;55.682;37.564;2023-02-20T04:02:25;40.08;;;20.92;;
25083;SDS011;13075;55.682;37.564;2023-02-20T04:04:58;41.78;;;20.38;;
25083;SDS011;13075;55.682;37.564;2023-02-20T04:07:33;40.08;;;20.70;;
25083;SDS011;13075;55.682;37.564;2023-02-20T04:10:03;36.67;;;19.45;;
25083;SDS011;13075;55.682;37.564;2023-02-20T04:12:33;38.22;;;20.27;;
25083;SDS011;13075;55.682;37.564;2023-02-20T04:15:03;41.78;;;19.95;;
25083;SDS011;13075;55.682;37.564;2023-02-20T04:17:35;38.20;;;18.65;;
25083;SDS011;13075;55.682;37.564;2023-02-20T04:20:06;39.53;;;19.92;;
25083;SDS011;13075;55.682;37.564;2023-02-20T04:22:37;39.95;;;19.10;;
25083;SDS011;13075;55.682;37.564;2023-02-20T04:25:09;45.38;;;20.17;;
25083;SDS011;13075;55.682;37.564;2023-02-20T04:27:53;29.63;;;17.15;;
25083;SDS011;13075;55.682;37.564;2023-02-20T04:30:19;41.28;;;19.40;;
25083;SDS011;13075;55.682;37.564;2023-02-20T04:32:44;36.83;;;19.13;;
25083;SDS011;13075;55.682;37.564;2023-02-20T04:35:15;33.15;;;17.17;;
25083;SDS011;13075;55.682;37.564;2023-02-20T04:37:44;37.90;;;18.45;;
25083;SDS011;13075;55.682;37.564;2023-02-20T04:40:10;38.17;;;18.40;;
25083;SDS011;13075;55.682;37.564;2023-02-20T04:42:38;36.53;;;18.17;;
25083;SDS011;13075;55.682;37.564;2023-02-20T04:45:03;38.80;;;18.50;;
25083;SDS011;13075;55.682;37.564;2023-02-20T04:47:30;40.72;;;20.42;;
25083;SDS011;13075;55.682;37.564;2023-02-20T04:49:55;37.10;;;17.35;;
25083;SDS011;13075;55.682;37.564;2023-02-20T04:52:24;39.33;;;18.95;;
25083;SDS011;13075;55.682;37.564;2023-02-20T04:54:50;43.70;;;20.55;;
25083;SDS011;13075;55.682;37.564;2023-02-20T04:57:17;38.08;;;19.83;;
25083;SDS011;13075;55.682;37.564;2023-02-20T04:59:43;40.67;;;21.10;;
25083;SDS011;13075;55.682;37.564;2023-02-20T05:02:10;40.38;;;20.33;;
25083;SDS011;13075;55.682;37.564;2023-02-20T05:04:36;40.80;;;22.55;;
25083;SDS011;13075;55.682;37.564;2023-02-20T05:07:01;38.10;;;20.20;;
25083;SDS011;13075;55.682;37.564;2023-02-20T05:09:27;44.33;;;20.48;;
25083;SDS011;13075;55.682;37.564;2023-02-20T05:11:53;37.05;;;19.77;;
25083;SDS011;13075;55.682;37.564;2023-02-20T05:14:19;40.20;;;19.40;;
25083;SDS011;13075;55.682;37.564;2023-02-20T05:16:46;34.63;;;16.92;;
25083;SDS011;13075;55.682;37.564;2023-02-20T05:19:12;33.47;;;18.63;;
25083;SDS011;13075;55.682;37.564;2023-02-20T05:21:42;41.85;;;20.73;;
25083;SDS011;13075;55.682;37.564;2023-02-20T05:24:27;40.00;;;20.85;;
25083;SDS011;13075;55.682;37.564;2023-02-20T05:26:54;40.05;;;20.02;;
25083;SDS011;13075;55.682;37.564;2023-02-20T05:29:20;36.50;;;17.90;;
25083;SDS011;13075;55.682;37.564;2023-02-20T05:31:46;40.50;;;18.58;;
25083;SDS011;13075;55.682;37.564;2023-02-20T05:34:12;43.13;;;19.45;;
25083;SDS011;13075;55.682;37.564;2023-02-20T05:36:37;47.90;;;19.27;;
25083;SDS011;13075;55.682;37.564;2023-02-20T05:39:03;38.45;;;16.83;;
25083;SDS011;13075;55.682;37.564;2023-02-20T05:41:29;34.88;;;17.45;;
25083;SDS011;13075;55.682;37.564;2023-02-20T05:43:55;42.70;;;18.35;;
25083;SDS011;13075;55.682;37.564;2023-02-20T05:46:22;32.00;;;16.80;;
25083;SDS011;13075;55.682;37.564;2023-02-20T05:48:49;36.45;;;17.52;;
25083;SDS011;13075;55.682;37.564;2023-02-20T05:51:25;35.28;;;17.52;;
25083;SDS011;13075;55.682;37.564;2023-02-20T05:53:53;39.35;;;19.45;;
25083;SDS011;13075;55.682;37.564;2023-02-20T05:56:18;33.65;;;17.02;;
25083;SDS011;13075;55.682;37.564;2023-02-20T05:58:44;37.83;;;18.88;;
25083;SDS011;13075;55.682;37.564;2023-02-20T06:01:20;32.20;;;16.52;;
25083;SDS011;13075;55.682;37.564;2023-02-20T06:03:48;35.60;;;17.00;;
25083;SDS011;13075;55.682;37.564;2023-02-20T06:06:13;36.35;;;18.42;;
25083;SDS011;13075;55.682;37.564;2023-02-20T06:08:40;37.58;;;15.93;;
25083;SDS011;13075;55.682;37.564;2023-02-20T06:11:05;35.38;;;16.58;;
25083;SDS011;13075;55.682;37.564;2023-02-20T06:13:31;38.08;;;18.15;;
25083;SDS011;13075;55.682;37.564;2023-02-20T06:15:57;30.73;;;16.77;;
25083;SDS011;13075;55.682;37.564;2023-02-20T06:18:23;28.58;;;14.23;;
25083;SDS011;13075;55.682;37.564;2023-02-20T06:20:48;26.95;;;15.45;;
25083;SDS011;13075;55.682;37.564;2023-02-20T06:23:14;35.35;;;16.98;;
25083;SDS011;13075;55.682;37.564;2023-02-20T06:25:39;30.70;;;16.38;;
25083;SDS011;13075;55.682;37.564;2023-02-20T06:28:05;32.70;;;17.05;;
25083;SDS011;13075;55.682;37.564;2023-02-20T06:30:31;39.75;;;17.15;;
25083;SDS011;13075;55.682;37.564;2023-02-20T06:32:56;37.10;;;17.08;;
25083;SDS011;13075;55.682;37.564;2023-02-20T06:35:22;37.35;;;18.73;;
25083;SDS011;13075;55.682;37.564;2023-02-20T06:37:48;34.50;;;16.90;;
25083;SDS011;13075;55.682;37.564;2023-02-20T06:40:13;35.55;;;16.77;;
25083;SDS011;13075;55.682;37.564;2023-02-20T06:42:39;33.28;;;17.67;;
25083;SDS011;13075;55.682;37.564;2023-02-20T06:45:04;29.50;;;14.13;;
25083;SDS011;13075;55.682;37.564;2023-02-20T06:47:30;33.63;;;17.45;;
25083;SDS011;13075;55.682;37.564;2023-02-20T06:49:56;35.92;;;17.45;;
25083;SDS011;13075;55.682;37.564;2023-02-20T06:52:22;38.88;;;18.23;;
25083;SDS011;13075;55.682;37.564;2023-02-20T06:54:47;33.15;;;17.67;;
25083;SDS011;13075;55.682;37.564;2023-02-20T06:57:13;44.63;;;18.35;;
25083;SDS011;13075;55.682;37.564;2023-02-20T06:59:39;37.67;;;19.63;;
25083;SDS011;13075;55.682;37.564;2023-02-20T07:02:06;33.95;;;16.83;;
25083;SDS011;13075;55.682;37.564;2023-02-20T07:04:36;29.80;;;15.02;;
25083;SDS011;13075;55.682;37.564;2023-02-20T07:07:01;33.92;;;16.10;;
25083;SDS011;13075;55.682;37.564;2023-02-20T07:09:27;32.17;;;17.27;;
25083;SDS011;13075;55.682;37.564;2023-02-20T07:11:53;50.03;;;23.00;;
25083;SDS011;13075;55.682;37.564;2023-02-20T07:14:20;36.10;;;17.42;;
25083;SDS011;13075;55.682;37.564;2023-02-20T07:16:46;29.20;;;15.93;;
25083;SDS011;13075;55.682;37.564;2023-02-20T07:19:11;42.17;;;17.45;;
25083;SDS011;13075;55.682;37.564;2023-02-20T07:21:37;35.72;;;17.05;;
25083;SDS011;13075;55.682;37.564;2023-02-20T07:24:03;40.45;;;17.15;;
25083;SDS011;13075;55.682;37.564;2023-02-20T07:26:29;30.42;;;16.60;;
25083;SDS011;13075;55.682;37.564;2023-02-20T07:28:55;32.28;;;16.55;;
25083;SDS011;13075;55.682;37.564;2023-02-20T07:31:25;30.05;;;16.45;;
25083;SDS011;13075;55.682;37.564;2023-02-20T07:33:52;30.90;;;16.40;;
25083;SDS011;13075;55.682;37.564;2023-02-20T07:36:17;38.25;;;18.30;;
25083;SDS011;13075;55.682;37.564;2023-02-20T07:38:51;34.58;;;17.50;;
25083;SDS011;13075;55.682;37.564;2023-02-20T07:41:21;43.63;;;16.90;;
25083;SDS011;13075;55.682;37.564;2023-02-20T07:43:47;40.97;;;17.75;;
25083;SDS011;13075;55.682;37.564;2023-02-20T07:46:13;37.15;;;18.17;;
25083;SDS011;13075;55.682;37.564;2023-02-20T07:48:39;33.47;;;17.95;;
25083;SDS011;13075;55.682;37.564;2023-02-20T07:51:04;37.70;;;18.25;;
25083;SDS011;13075;55.682;37.564;2023-02-20T07:53:30;38.33;;;18.27;;
25083;SDS011;13075;55.682;37.564;2023-02-20T07:55:55;35.85;;;18.65;;
25083;SDS011;13075;55.682;37.564;2023-02-20T07:58:21;35.97;;;18.42;;
25083;SDS011;13075;55.682;37.564;2023-02-20T08:00:47;31.00;;;17.20;;
25083;SDS011;13075;55.682;37.564;2023-02-20T08:03:15;34.42;;;17.00;;
25083;SDS011;13075;55.682;37.564;2023-02-20T08:05:41;31.45;;;17.08;;
25083;SDS011;13075;55.682;37.564;2023-02-20T08:08:07;40.88;;;18.40;;
25083;SDS011;13075;55.682;37.564;2023-02-20T08:10:33;37.47;;;19.58;;
25083;SDS011;13075;55.682;37.564;2023-02-20T08:12:58;36.15;;;17.13;;
25083;SDS011;13075;55.682;37.564;2023-02-20T08:15:24;41.00;;;19.15;;
25083;SDS011;13075;55.682;37.564;2023-02-20T08:17:50;32.92;;;16.67;;
25083;SDS011;13075;55.682;37.564;2023-02-20T08:20:16;36.47;;;19.58;;
25083;SDS011;13075;55.682;37.564;2023-02-20T08:22:44;34.67;;;17.33;;
25083;SDS011;13075;55.682;37.564;2023-02-20T08:25:10;30.92;;;17.13;;
25083;SDS011;13075;55.682;37.564;2023-02-20T08:27:36;35.55;;;18.75;;
25083;SDS011;13075;55.682;37.564;2023-02-20T08:30:08;34.50;;;17.77;;
25083;SDS011;13075;55.682;37.564;2023-02-20T08:32:37;33.38;;;17.90;;
25083;SDS011;13075;55.682;37.564;2023-02-20T08:35:03;33.47;;;16.88;;
25083;SDS011;13075;55.682;37.564;2023-02-20T08:37:29;35.20;;;17.05;;
25083;SDS011;13075;55.682;37.564;2023-02-20T08:39:54;35.25;;;17.63;;
25083;SDS011;13075;55.682;37.564;2023-02-20T08:42:20;37.47;;;18.00;;
25083;SDS011;13075;55.682;37.564;2023-02-20T08:44:45;35.17;;;18.02;;
25083;SDS011;13075;55.682;37.564;2023-02-20T08:47:11;46.78;;;19.13;;
25083;SDS011;13075;55.682;37.564;2023-02-20T08:49:37;35.83;;;17.65;;
25083;SDS011;13075;55.682;37.564;2023-02-20T08:52:02;38.20;;;18.40;;
25083;SDS011;13075;55.682;37.564;2023-02-20T08:54:29;38.83;;;19.27;;
25083;SDS011;13075;55.682;37.564;2023-02-20T08:56:55;42.25;;;19.60;;
25083;SDS011;13075;55.682;37.564;2023-02-20T08:59:21;32.08;;;18.02;;
25083;SDS011;13075;55.682;37.564;2023-02-20T09:01:47;37.65;;;18.50;;
25083;SDS011;13075;55.682;37.564;2023-02-20T09:04:13;32.70;;;17.27;;
25083;SDS011;13075;55.682;37.564;2023-02-20T09:06:41;36.70;;;17.17;;
25083;SDS011;13075;55.682;37.564;2023-02-20T09:09:06;32.13;;;17.65;;
25083;SDS011;13075;55.682;37.564;2023-02-20T09:11:32;40.88;;;19.80;;
25083;SDS011;13075;55.682;37.564;2023-02-20T09:13:57;38.25;;;19.10;;
25083;SDS011;13075;55.682;37.564;2023-02-20T09:16:23;40.33;;;18.83;;
25083;SDS011;13075;55.682;37.564;2023-02-20T09:18:49;34.10;;;17.23;;
25083;SDS011;13075;55.682;37.564;2023-02-20T09:21:16;36.63;;;16.55;;
25083;SDS011;13075;55.682;37.564;2023-02-20T09:23:44;31.35;;;15.55;;
25083;SDS011;13075;55.682;37.564;2023-02-20T09:26:10;35.38;;;17.80;;
25083;SDS011;13075;55.682;37.564;2023-02-20T09:28:36;34.35;;;17.10;;
25083;SDS011;13075;55.682;37.564;2023-02-20T09:31:02;34.75;;;17.90;;
25083;SDS011;13075;55.682;37.564;2023-02-20T09:33:28;39.75;;;19.85;;
25083;SDS011;13075;55.682;37.564;2023-02-20T09:35:54;36.05;;;18.10;;
25083;SDS011;13075;55.682;37.564;2023-02-20T09:38:20;38.22;;;18.88;;
25083;SDS011;13075;55.682;37.564;2023-02-20T09:40:51;42.63;;;18.85;;
25083;SDS011;13075;55.682;37.564;2023-02-20T09:48:48;35.67;;;17.10;;
25083;SDS011;13075;55.682;37.564;2023-02-20T09:51:23;38.45;;;17.98;;
25083;SDS011;13075;55.682;37.564;2023-02-20T09:56:33;36.28;;;17.27;;
25083;SDS011;13075;55.682;37.564;2023-02-20T09:59:03;35.22;;;18.50;;
25083;SDS011;13075;55.682;37.564;2023-02-20T10:01:34;30.25;;;16.13;;
25083;SDS011;13075;55.682;37.564;2023-02-20T10:04:09;41.13;;;18.27;;
25083;SDS011;13075;55.682;37.564;2023-02-20T10:06:42;39.70;;;18.02;;
25083;SDS011;13075;55.682;37.564;2023-02-20T10:09:10;43.33;;;18.58;;
25083;SDS011;13075;55.682;37.564;2023-02-20T10:25:47;28.10;;;16.58;;
25083;SDS011;13075;55.682;37.564;2023-02-20T10:28:18;39.60;;;18.42;;
25083;SDS011;13075;55.682;37.564;2023-02-20T10:33:27;35.75;;;15.45;;
25083;SDS011;13075;55.682;37.564;2023-02-20T10:35:56;36.47;;;18.63;;
25083;SDS011;13075;55.682;37.564;2023-02-20T10:38:26;35.45;;;16.42;;
25083;SDS011;13075;55.682;37.564;2023-02-20T10:46:03;40.72;;;17.30;;
25083;SDS011;13075;55.682;37.564;2023-02-20T10:48:30;38.08;;;16.27;;
25083;SDS011;13075;55.682;37.564;2023-02-20T10:56:33;34.80;;;16.20;;
25083;SDS011;13075;55.682;37.564;2023-02-20T10:59:12;40.00;;;18.25;;
25083;SDS011;13075;55.682;37.564;2023-02-20T11:01:47;37.28;;;17.58;;
25083;SDS011;13075;55.682;37.564;2023-02-20T11:04:28;34.78;;;18.38;;
25083;SDS011;13075;55.682;37.564;2023-02-20T11:06:59;36.40;;;19.05;;
25083;SDS011;13075;55.682;37.564;2023-02-20T11:09:28;36.95;;;18.85;;
25083;SDS011;13075;55.682;37.564;2023-02-20T11:11:54;44.65;;;20.85;;
25083;SDS011;13075;55.682;37.564;2023-02-20T11:17:06;40.50;;;18.75;;
25083;SDS011;13075;55.682;37.564;2023-02-20T11:19:44;45.42;;;21.58;;
25083;SDS011;13075;55.682;37.564;2023-02-20T11:22:11;47.90;;;21.17;;
25083;SDS011;13075;55.682;37.564;2023-02-20T11:24:38;40.03;;;19.48;;
25083;SDS011;13075;55.682;37.564;2023-02-20T11:27:07;44.13;;;19.45;;
25083;SDS011;13075;55.682;37.564;2023-02-20T11:32:36;59.13;;;19.70;;
25083;SDS011;13075;55.682;37.564;2023-02-20T11:37:41;39.65;;;19.30;;
25083;SDS011;13075;55.682;37.564;2023-02-20T11:40:20;44.70;;;19.90;;
25083;SDS011;13075;55.682;37.564;2023-02-20T11:42:51;43.75;;;20.08;;
25083;SDS011;13075;55.682;37.564;2023-02-20T11:45:24;40.90;;;17.85;;
25083;SDS011;13075;55.682;37.564;2023-02-20T11:50:50;42.22;;;19.20;;
25083;SDS011;13075;55.682;37.564;2023-02-20T11:56:13;40.25;;;19.10;;
25083;SDS011;13075;55.682;37.564;2023-02-20T11:58:41;36.50;;;18.02;;
25083;SDS011;13075;55.682;37.564;2023-02-20T12:01:26;48.30;;;19.13;;
25083;SDS011;13075;55.682;37.564;2023-02-20T12:03:55;34.05;;;17.35;;
25083;SDS011;13075;55.682;37.564;2023-02-20T12:08:57;47.60;;;17.67;;
25083;SDS011;13075;55.682;37.564;2023-02-20T12:11:25;35.10;;;17.90;;
25083;SDS011;13075;55.682;37.564;2023-02-20T12:13:53;38.95;;;18.92;;
25083;SDS011;13075;55.682;37.564;2023-02-20T12:16:45;36.65;;;16.85;;
25083;SDS011;13075;55.682;37.564;2023-02-20T12:36:05;38.22;;;17.08;;
25083;SDS011;13075;55.682;37.564;2023-02-20T12:39:05;41.83;;;19.25;;
25083;SDS011;13075;55.682;37.564;2023-02-20T13:03:10;34.58;;;15.55;;
25083;SDS011;13075;55.682;37.564;2023-02-20T13:05:42;35.08;;;16.77;;
25083;SDS011;13075;55.682;37.564;2023-02-20T13:08:32;37.90;;;16.80;;
25083;SDS011;13075;55.682;37.564;2023-02-20T13:11:04;28.58;;;14.75;;
25083;SDS011;13075;55.682;37.564;2023-02-20T13:19:15;32.50;;;15.63;;
25083;SDS011;13075;55.682;37.564;2023-02-20T13:21:45;36.20;;;18.05;;
25083;SDS011;13075;55.682;37.564;2023-02-20T13:24:31;33.92;;;15.65;;
25083;SDS011;13075;55.682;37.564;2023-02-20T13:27:00;32.28;;;15.52;;
25083;SDS011;13075;55.682;37.564;2023-02-20T13:29:31;37.45;;;16.25;;
25083;SDS011;13075;55.682;37.564;2023-02-20T13:32:24;32.28;;;14.80;;
25083;SDS011;13075;55.682;37.564;2023-02-20T13:34:52;27.83;;;14.60;;
25083;SDS011;13075;55.682;37.564;2023-02-20T13:40:44;34.40;;;17.15;;
25083;SDS011;13075;55.682;37.564;2023-02-20T13:56:16;35.17;;;17.30;;
25083;SDS011;13075;55.682;37.564;2023-02-20T13:58:43;37.03;;;16.33;;
25083;SDS011;13075;55.682;37.564;2023-02-20T14:01:10;35.63;;;16.13;;
25083;SDS011;13075;55.682;37.564;2023-02-20T14:03:36;38.92;;;17.00;;
25083;SDS011;13075;55.682;37.564;2023-02-20T14:06:09;39.47;;;17.83;;
25083;SDS011;13075;55.682;37.564;2023-02-20T14:08:36;33.58;;;17.33;;
25083;SDS011;13075;55.682;37.564;2023-02-20T14:11:09;35.13;;;16.30;;
25083;SDS011;13075;55.682;37.564;2023-02-20T14:13:55;30.75;;;14.27;;
25083;SDS011;13075;55.682;37.564;2023-02-20T14:16:33;33.90;;;16.38;;
25083;SDS011;13075;55.682;37.564;2023-02-20T14:19:18;37.80;;;16.27;;
25083;SDS011;13075;55.682;37.564;2023-02-20T14:21:48;42.00;;;17.65;;
25083;SDS011;13075;55.682;37.564;2023-02-20T14:26:45;49.33;;;17.70;;
25083;SDS011;13075;55.682;37.564;2023-02-20T14:29:20;32.83;;;17.15;;
25083;SDS011;13075;55.682;37.564;2023-02-20T14:31:52;27.63;;;14.43;;
25083;SDS011;13075;55.682;37.564;2023-02-20T14:39:46;30.80;;;15.95;;
25083;SDS011;13075;55.682;37.564;2023-02-20T14:42:29;34.95;;;14.68;;
25083;SDS011;13075;55.682;37.564;2023-02-20T14:44:59;35.13;;;17.08;;
25083;SDS011;13075;55.682;37.564;2023-02-20T14:47:26;38.05;;;16.65;;
25083;SDS011;13075;55.682;37.564;2023-02-20T14:49:53;34.75;;;16.33;;
25083;SDS011;13075;55.682;37.564;2023-02-20T14:52:31;34.28;;;16.40;;
25083;SDS011;13075;55.682;37.564;2023-02-20T14:55:01;29.05;;;14.48;;
25083;SDS011;13075;55.682;37.564;2023-02-20T14:57:28;36.80;;;14.93;;
25083;SDS011;13075;55.682;37.564;2023-02-20T15:02:49;35.45;;;15.70;;
25083;SDS011;13075;55.682;37.564;2023-02-20T15:05:19;33.10;;;16.63;;
25083;SDS011;13075;55.682;37.564;2023-02-20T15:08:40;32.92;;;14.93;;
25083;SDS011;13075;55.682;37.564;2023-02-20T15:10:49;38.92;;;16.88;;
25083;SDS011;13075;55.682;37.564;2023-02-20T15:13:26;41.05;;;16.25;;
25083;SDS011;13075;55.682;37.564;2023-02-20T15:18:59;32.45;;;16.40;;
25083;SDS011;13075;55.682;37.564;2023-02-20T15:24:12;32.67;;;15.52;;
25083;SDS011;13075;55.682;37.564;2023-02-20T15:26:50;31.52;;;13.98;;
25083;SDS011;13075;55.682;37.564;2023-02-20T15:29:26;37.25;;;14.23;;
25083;SDS011;13075;55.682;37.564;2023-02-20T15:31:53;30.90;;;13.93;;
25083;SDS011;13075;55.682;37.564;2023-02-20T15:34:58;33.60;;;14.43;;
25083;SDS011;13075;55.682;37.564;2023-02-20T15:37:30;32.63;;;13.68;;
25083;SDS011;13075;55.682;37.564;2023-02-20T15:40:05;28.58;;;14.05;;
25083;SDS011;13075;55.682;37.564;2023-02-20T15:42:40;38.50;;;15.63;;
25083;SDS011;13075;55.682;37.564;2023-02-20T15:45:06;34.17;;;15.45;;
25083;SDS011;13075;55.682;37.564;2023-02-20T15:47:32;33.45;;;15.60;;
25083;SDS011;13075;55.682;37.564;2023-02-20T15:49:57;35.55;;;15.73;;
25083;SDS011;13075;55.682;37.564;2023-02-20T15:52:23;33.80;;;15.43;;
25083;SDS011;13075;55.682;37.564;2023-02-20T15:54:51;31.65;;;15.27;;
25083;SDS011;13075;55.682;37.564;2023-02-20T15:57:19;26.90;;;13.40;;
25083;SDS011;13075;55.682;37.564;2023-02-20T15:59:45;25.45;;;13.50;;
25083;SDS011;13075;55.682;37.564;2023-02-20T16:02:12;31.67;;;14.02;;
25083;SDS011;13075;55.682;37.564;2023-02-20T16:07:14;31.05;;;14.23;;
25083;SDS011;13075;55.682;37.564;2023-02-20T16:09:41;35.03;;;15.25;;
25083;SDS011;13075;55.682;37.564;2023-02-20T16:12:11;34.05;;;14.85;;
25083;SDS011;13075;55.682;37.564;2023-02-20T16:17:08;35.15;;;17.13;;
25083;SDS011;13075;55.682;37.564;2023-02-20T16:22:05;31.48;;;15.05;;
25083;SDS011;13075;55.682;37.564;2023-02-20T16:24:31;44.17;;;16.58;;
25083;SDS011;13075;55.682;37.564;2023-02-20T16:26:59;37.40;;;16.75;;
25083;SDS011;13075;55.682;37.564;2023-02-20T16:29:27;38.30;;;18.30;;
25083;SDS011;13075;55.682;37.564;2023-02-20T16:34:28;45.67;;;18.70;;
25083;SDS011;13075;55.682;37.564;2023-02-20T16:36:56;41.03;;;19.27;;
25083;SDS011;13075;55.682;37.564;2023-02-20T16:39:22;42.70;;;19.52;;
25083;SDS011;13075;55.682;37.564;2023-02-20T16:41:48;41.85;;;20.13;;
25083;SDS011;13075;55.682;37.564;2023-02-20T16:47:16;48.03;;;19.10;;
25083;SDS011;13075;55.682;37.564;2023-02-20T16:49:44;46.58;;;18.05;;
25083;SDS011;13075;55.682;37.564;2023-02-20T16:52:21;44.25;;;19.92;;
25083;SDS011;13075;55.682;37.564;2023-02-20T16:54:47;46.35;;;20.67;;
25083;SDS011;13075;55.682;37.564;2023-02-20T16:57:14;51.13;;;18.52;;
25083;SDS011;13075;55.682;37.564;2023-02-20T16:59:40;44.42;;;19.55;;
25083;SDS011;13075;55.682;37.564;2023-02-20T17:02:06;45.08;;;20.02;;
25083;SDS011;13075;55.682;37.564;2023-02-20T17:04:34;39.60;;;18.65;;
25083;SDS011;13075;55.682;37.564;2023-02-20T17:07:00;49.40;;;19.58;;
25083;SDS011;13075;55.682;37.564;2023-02-20T17:09:25;43.60;;;20.23;;
25083;SDS011;13075;55.682;37.564;2023-02-20T17:11:51;46.85;;;19.98;;
25083;SDS011;13075;55.682;37.564;2023-02-20T17:14:17;44.30;;;19.88;;
25083;SDS011;13075;55.682;37.564;2023-02-20T17:16:46;53.40;;;21.90;;
25083;SDS011;13075;55.682;37.564;2023-02-20T17:19:13;45.78;;;21.17;;
25083;SDS011;13075;55.682;37.564;2023-02-20T17:21:40;42.95;;;21.17;;